Time;durP1;ratioP1;P1;durP2;ratioP2;P2;SDS_P1;SDS_P2;PMS_P1;PMS_P2;Temp;Humidity;BMP_temperature;BMP_pressure;BME280_temperature;BME280_humidity;BME280_pressure;Samples;Min_cycle;Max_cycle;Signal;HPM_P1;HPM_P2
2022/01/10 00:03:20;;;;;;;114.32;49.45;;;;;;;;;;10532171;28;20033;-74
2022/01/10 00:08:23;;;;;;;115.65;46.33;;;;;;;;;;10518632;28;20048;-73
2022/01/10 00:13:28;;;;;;;109.10;45.67;;;;;;;;;;10520110;28;20090;-73
2022/01/10 00:18:31;;;;;;;101.40;41.85;;;;;;;;;;10517629;28;20086;-73
2022/01/10 00:23:34;;;;;;;108.05;48.83;;;;;;;;;;10518924;28;20048;-72
2022/01/10 00:28:39;;;;;;;115.00;47.85;;;;;;;;;;10517597;28;20048;-73
2022/01/10 00:33:41;;;;;;;122.20;50.72;;;;;;;;;;10517781;28;20048;-73
2022/01/10 00:38:44;;;;;;;107.72;41.90;;;;;;;;;;10518453;28;20045;-72
2022/01/10 00:43:50;;;;;;;113.55;47.30;;;;;;;;;;10516797;28;20086;-72
2022/01/10 00:48:55;;;;;;;94.80;41.38;;;;;;;;;;10517794;28;20082;-73
2022/01/10 00:53:58;;;;;;;90.30;37.60;;;;;;;;;;10514815;28;20344;-72
2022/01/10 00:59:02;;;;;;;100.57;43.35;;;;;;;;;;10516679;28;20497;-72
2022/01/10 01:04:06;;;;;;;90.88;39.00;;;;;;;;;;10515811;28;20051;-72
2022/01/10 01:09:14;;;;;;;102.88;41.20;;;;;;;;;;10515485;28;20047;-73
2022/01/10 01:14:26;;;;;;;87.07;37.17;;;;;;;;;;10497667;28;20037;-73
2022/01/10 01:24:46;;;;;;;97.38;44.05;;;;;;;;;;10464805;28;20053;-72
2022/01/10 01:29:50;;;;;;;99.57;39.70;;;;;;;;;;10514979;28;20327;-72
2022/01/10 01:34:56;;;;;;;112.32;46.47;;;;;;;;;;10515234;28;20346;-72
2022/01/10 01:39:59;;;;;;;93.38;41.22;;;;;;;;;;10527613;28;20036;-72
2022/01/10 01:45:05;;;;;;;102.30;42.50;;;;;;;;;;10512857;28;20052;-72
2022/01/10 01:50:10;;;;;;;114.68;46.95;;;;;;;;;;10529299;28;20051;-72
2022/01/10 01:55:13;;;;;;;88.30;38.50;;;;;;;;;;10521721;28;20320;-73
2022/01/10 02:00:22;;;;;;;105.07;46.22;;;;;;;;;;10523851;28;20040;-73
2022/01/10 02:05:25;;;;;;;99.95;42.22;;;;;;;;;;10537957;28;20040;-73
2022/01/10 02:10:29;;;;;;;117.97;50.92;;;;;;;;;;10523563;28;20052;-73
2022/01/10 02:15:46;;;;;;;100.57;44.85;;;;;;;;;;10522577;28;20086;-73
2022/01/10 02:20:50;;;;;;;106.57;47.00;;;;;;;;;;10522285;28;20044;-72
2022/01/10 02:25:53;;;;;;;111.05;49.53;;;;;;;;;;10521952;28;20243;-71
2022/01/10 02:30:57;;;;;;;108.72;47.55;;;;;;;;;;10511981;28;20052;-72
2022/01/10 02:36:13;;;;;;;112.15;49.45;;;;;;;;;;10489029;28;20044;-73
2022/01/10 02:41:27;;;;;;;114.18;46.63;;;;;;;;;;10522590;28;20036;-72
2022/01/10 02:46:33;;;;;;;128.27;52.65;;;;;;;;;;10535332;28;20040;-73
2022/01/10 02:51:38;;;;;;;115.30;48.55;;;;;;;;;;10520955;28;20214;-72
2022/01/10 02:56:47;;;;;;;108.70;47.90;;;;;;;;;;10521698;28;20045;-72
2022/01/10 03:01:50;;;;;;;113.68;50.63;;;;;;;;;;10521505;28;20048;-73
2022/01/10 03:06:54;;;;;;;119.00;52.28;;;;;;;;;;10521120;28;20057;-73
2022/01/10 03:11:57;;;;;;;120.22;53.13;;;;;;;;;;10520999;28;20036;-74
2022/01/10 03:17:00;;;;;;;126.03;51.60;;;;;;;;;;10520088;28;20057;-72
2022/01/10 03:22:04;;;;;;;129.98;54.88;;;;;;;;;;10520455;28;20291;-72
2022/01/10 03:27:07;;;;;;;120.97;54.72;;;;;;;;;;10515200;28;20045;-72
2022/01/10 03:32:11;;;;;;;116.47;50.75;;;;;;;;;;10520252;28;20058;-73
2022/01/10 03:37:15;;;;;;;117.65;52.47;;;;;;;;;;10519855;28;20040;-73
2022/01/10 03:42:18;;;;;;;132.75;58.38;;;;;;;;;;10519789;28;20041;-73
2022/01/10 03:47:21;;;;;;;136.35;59.22;;;;;;;;;;10517857;28;20044;-73
2022/01/10 03:52:27;;;;;;;128.13;54.10;;;;;;;;;;10520046;28;20056;-72
2022/01/10 03:57:30;;;;;;;139.55;59.55;;;;;;;;;;10531803;28;20336;-73
2022/01/10 04:02:34;;;;;;;135.23;55.90;;;;;;;;;;10518617;28;20040;-73
2022/01/10 04:07:38;;;;;;;126.80;53.33;;;;;;;;;;10518028;28;20239;-73
2022/01/10 04:12:40;;;;;;;115.70;48.90;;;;;;;;;;10517680;28;20335;-73
2022/01/10 04:17:43;;;;;;;111.70;49.60;;;;;;;;;;10516754;28;20067;-72
2022/01/10 04:22:47;;;;;;;116.47;51.03;;;;;;;;;;10514438;28;20351;-72
2022/01/10 04:27:50;;;;;;;106.68;44.92;;;;;;;;;;10517484;28;20358;-73
2022/01/10 04:32:53;;;;;;;105.88;47.05;;;;;;;;;;10515609;28;20044;-73
2022/01/10 04:37:57;;;;;;;122.95;51.33;;;;;;;;;;10514451;28;20304;-72
2022/01/10 04:43:00;;;;;;;122.53;53.53;;;;;;;;;;10515810;28;20278;-74
2022/01/10 04:48:03;;;;;;;133.15;53.42;;;;;;;;;;10515346;28;20293;-72
2022/01/10 04:53:07;;;;;;;210.48;66.07;;;;;;;;;;10516036;28;20142;-73
2022/01/10 04:58:09;;;;;;;131.38;52.03;;;;;;;;;;10488134;28;20056;-72
2022/01/10 05:03:12;;;;;;;113.28;49.45;;;;;;;;;;10514518;28;20363;-72
2022/01/10 05:08:16;;;;;;;115.50;48.00;;;;;;;;;;10516009;28;20047;-73
2022/01/10 05:13:20;;;;;;;103.00;42.63;;;;;;;;;;10516723;28;20251;-72
2022/01/10 05:18:24;;;;;;;125.63;51.05;;;;;;;;;;10513332;28;20121;-72
2022/01/10 05:23:28;;;;;;;111.57;45.30;;;;;;;;;;10516847;28;20036;-73
2022/01/10 05:28:31;;;;;;;130.40;53.67;;;;;;;;;;10515327;28;20062;-73
2022/01/10 05:33:33;;;;;;;106.28;44.63;;;;;;;;;;10515889;28;20059;-73
2022/01/10 05:38:38;;;;;;;175.30;60.70;;;;;;;;;;10515970;28;20048;-72
2022/01/10 05:43:41;;;;;;;140.77;58.13;;;;;;;;;;10515726;28;20047;-73
2022/01/10 05:48:47;;;;;;;140.77;53.75;;;;;;;;;;10514538;28;20047;-73
2022/01/10 05:53:51;;;;;;;127.18;49.85;;;;;;;;;;10529081;28;20106;-72
2022/01/10 05:58:54;;;;;;;122.13;50.72;;;;;;;;;;10487896;28;20082;-73
2022/01/10 06:03:56;;;;;;;128.73;49.42;;;;;;;;;;10503562;28;20053;-72
2022/01/10 06:09:01;;;;;;;129.20;55.85;;;;;;;;;;10513916;28;20040;-73
2022/01/10 06:14:03;;;;;;;147.60;57.17;;;;;;;;;;10537752;28;20546;-72
2022/01/10 06:19:07;;;;;;;148.30;59.83;;;;;;;;;;10525799;28;20048;-72
2022/01/10 06:24:11;;;;;;;152.93;62.25;;;;;;;;;;10513979;28;20037;-72
2022/01/10 06:29:14;;;;;;;136.23;53.83;;;;;;;;;;10514225;28;20056;-74
2022/01/10 06:34:18;;;;;;;138.55;57.75;;;;;;;;;;10515035;28;20047;-74
2022/01/10 06:39:22;;;;;;;144.40;58.30;;;;;;;;;;10487081;28;20078;-73
2022/01/10 06:44:25;;;;;;;141.25;58.25;;;;;;;;;;10507232;28;20040;-72
2022/01/10 06:49:27;;;;;;;152.45;61.28;;;;;;;;;;10522090;28;20071;-74
2022/01/10 06:54:31;;;;;;;136.45;55.95;;;;;;;;;;10520719;28;20280;-72
2022/01/10 06:59:35;;;;;;;123.05;50.47;;;;;;;;;;10520903;28;20040;-73
2022/01/10 07:04:37;;;;;;;137.32;57.80;;;;;;;;;;10535361;28;20036;-71
2022/01/10 07:09:42;;;;;;;138.90;55.03;;;;;;;;;;10563537;28;20036;-72
2022/01/10 07:14:44;;;;;;;144.48;58.67;;;;;;;;;;10562949;28;20056;-71
2022/01/10 07:19:47;;;;;;;140.23;56.47;;;;;;;;;;10547292;28;20093;-71
2022/01/10 07:24:51;;;;;;;144.38;57.67;;;;;;;;;;10562840;28;20044;-71
2022/01/10 07:29:54;;;;;;;140.32;56.17;;;;;;;;;;10561124;28;20281;-72
2022/01/10 07:34:57;;;;;;;131.57;56.10;;;;;;;;;;10518067;28;20037;-71
2022/01/10 07:40:01;;;;;;;133.05;55.17;;;;;;;;;;10521021;28;20048;-72
2022/01/10 07:45:04;;;;;;;140.90;57.05;;;;;;;;;;10519697;28;20056;-73
2022/01/10 07:50:08;;;;;;;133.57;62.03;;;;;;;;;;10520007;28;20048;-71
2022/01/10 07:55:13;;;;;;;123.47;54.95;;;;;;;;;;10519849;28;20116;-73
2022/01/10 08:00:16;;;;;;;121.47;53.07;;;;;;;;;;10519620;28;20041;-71
2022/01/10 08:05:19;;;;;;;109.00;51.47;;;;;;;;;;10526293;28;20639;-71
2022/01/10 08:10:23;;;;;;;112.95;51.20;;;;;;;;;;10548796;28;20056;-72
2022/01/10 08:15:26;;;;;;;113.80;51.75;;;;;;;;;;10517647;28;20045;-72
2022/01/10 08:20:29;;;;;;;102.43;47.60;;;;;;;;;;10516714;28;20060;-70
2022/01/10 08:25:34;;;;;;;103.78;50.28;;;;;;;;;;10508200;28;20052;-71
2022/01/10 08:30:36;;;;;;;91.13;46.28;;;;;;;;;;10518241;28;20041;-71
2022/01/10 08:35:39;;;;;;;91.13;45.30;;;;;;;;;;10532159;28;20081;-71
2022/01/10 08:40:43;;;;;;;94.10;44.28;;;;;;;;;;10546714;28;20050;-71
2022/01/10 08:45:46;;;;;;;93.45;46.60;;;;;;;;;;10515847;28;20242;-73
2022/01/10 08:50:49;;;;;;;97.25;47.15;;;;;;;;;;10518050;28;20078;-71
2022/01/10 08:55:53;;;;;;;99.63;47.05;;;;;;;;;;10521123;28;20040;-72
2022/01/10 09:00:56;;;;;;;98.85;49.13;;;;;;;;;;10517381;28;20045;-71
2022/01/10 09:05:58;;;;;;;102.00;46.03;;;;;;;;;;10514922;28;20047;-72
2022/01/10 09:11:03;;;;;;;99.35;48.90;;;;;;;;;;10515448;28;20044;-73
2022/01/10 09:16:08;;;;;;;101.35;47.08;;;;;;;;;;10524391;28;20056;-73
2022/01/10 09:21:12;;;;;;;88.63;40.70;;;;;;;;;;10516294;28;20256;-71
2022/01/10 09:26:16;;;;;;;90.45;42.38;;;;;;;;;;10529757;28;20117;-69
2022/01/10 09:31:20;;;;;;;89.93;38.90;;;;;;;;;;10558545;28;20052;-72
2022/01/10 09:36:26;;;;;;;79.60;38.00;;;;;;;;;;10558038;28;20055;-72
2022/01/10 09:41:30;;;;;;;92.13;41.30;;;;;;;;;;10544479;28;20053;-72
2022/01/10 09:46:33;;;;;;;91.03;42.72;;;;;;;;;;10514394;28;20040;-73
2022/01/10 09:51:37;;;;;;;85.70;38.65;;;;;;;;;;10516555;28;20104;-73
2022/01/10 09:56:43;;;;;;;95.55;43.42;;;;;;;;;;10537839;28;20040;-71
2022/01/10 10:01:49;;;;;;;88.45;40.88;;;;;;;;;;10532697;28;20332;-73
2022/01/10 10:06:54;;;;;;;84.53;39.67;;;;;;;;;;10529954;28;20040;-73
2022/01/10 10:11:58;;;;;;;104.93;46.80;;;;;;;;;;10515847;28;20040;-73
2022/01/10 10:17:08;;;;;;;91.43;38.65;;;;;;;;;;10520679;28;20056;-73
2022/01/10 10:22:16;;;;;;;127.05;49.33;;;;;;;;;;10537223;28;20041;-73
2022/01/10 10:27:22;;;;;;;88.32;40.45;;;;;;;;;;10536781;28;20049;-71
2022/01/10 10:32:30;;;;;;;75.22;35.85;;;;;;;;;;10535732;28;20090;-71
2022/01/10 10:37:37;;;;;;;86.47;40.63;;;;;;;;;;10521707;28;20040;-71
2022/01/10 10:42:41;;;;;;;54.92;27.15;;;;;;;;;;10521520;28;20051;-71
2022/01/10 10:47:45;;;;;;;61.33;26.80;;;;;;;;;;10521201;28;20346;-71
2022/01/10 10:52:48;;;;;;;64.05;29.02;;;;;;;;;;10521276;28;20301;-72
2022/01/10 10:57:52;;;;;;;59.28;26.50;;;;;;;;;;10520387;28;20337;-72
2022/01/10 11:02:55;;;;;;;58.63;25.00;;;;;;;;;;10521401;28;20224;-72
2022/01/10 11:07:58;;;;;;;58.05;27.05;;;;;;;;;;10520158;28;20056;-71
2022/01/10 11:13:03;;;;;;;73.97;30.95;;;;;;;;;;10520059;28;20102;-71
2022/01/10 11:18:08;;;;;;;75.10;28.47;;;;;;;;;;10519973;28;20056;-71
2022/01/10 11:23:11;;;;;;;70.15;30.05;;;;;;;;;;10519973;28;20047;-72
2022/01/10 11:28:23;;;;;;;57.15;26.63;;;;;;;;;;10520112;28;20055;-73
2022/01/10 11:33:32;;;;;;;59.08;24.70;;;;;;;;;;10518245;28;20335;-71
2022/01/10 11:38:36;;;;;;;56.83;27.23;;;;;;;;;;10533745;28;20037;-73
2022/01/10 11:43:47;;;;;;;52.45;24.13;;;;;;;;;;10519262;28;20055;-71
2022/01/10 11:48:53;;;;;;;44.38;20.52;;;;;;;;;;10533389;28;20229;-71
2022/01/10 11:54:07;;;;;;;51.75;23.63;;;;;;;;;;10532801;28;20044;-71
2022/01/10 11:59:23;;;;;;;54.58;23.67;;;;;;;;;;10532344;28;20059;-72
2022/01/10 12:04:29;;;;;;;58.53;27.25;;;;;;;;;;10546978;28;20060;-71
2022/01/10 12:09:32;;;;;;;63.42;28.55;;;;;;;;;;10538089;28;20043;-73
2022/01/10 12:14:36;;;;;;;56.88;27.65;;;;;;;;;;10517712;28;20090;-71
2022/01/10 12:19:40;;;;;;;63.38;28.83;;;;;;;;;;10517475;28;20302;-71
2022/01/10 12:24:43;;;;;;;66.82;30.92;;;;;;;;;;10516350;28;20044;-73
2022/01/10 12:29:47;;;;;;;69.82;30.83;;;;;;;;;;10518424;28;20044;-71
2022/01/10 12:34:50;;;;;;;60.85;30.45;;;;;;;;;;10517300;28;20052;-71
2022/01/10 12:39:55;;;;;;;68.63;32.08;;;;;;;;;;10516942;28;20270;-73
2022/01/10 12:44:59;;;;;;;58.37;28.63;;;;;;;;;;10516953;28;20052;-72
2022/01/10 12:50:02;;;;;;;50.90;26.00;;;;;;;;;;10517175;28;20301;-72
2022/01/10 12:55:06;;;;;;;67.10;30.98;;;;;;;;;;10532087;28;20044;-71
2022/01/10 13:00:12;;;;;;;64.53;30.63;;;;;;;;;;10516590;28;20036;-71
2022/01/10 13:05:20;;;;;;;64.82;31.15;;;;;;;;;;10516502;28;20048;-74
2022/01/10 13:10:29;;;;;;;60.60;30.17;;;;;;;;;;10516047;28;20292;-72
2022/01/10 13:15:35;;;;;;;66.60;29.92;;;;;;;;;;10526683;28;20201;-72
2022/01/10 13:20:38;;;;;;;60.30;25.30;;;;;;;;;;10528876;28;20082;-73
2022/01/10 13:25:45;;;;;;;70.35;28.80;;;;;;;;;;10546337;28;20032;-72
2022/01/10 13:30:55;;;;;;;75.72;31.60;;;;;;;;;;10528123;28;20039;-71
2022/01/10 13:36:01;;;;;;;76.53;33.95;;;;;;;;;;10519388;28;20052;-72
2022/01/10 13:41:10;;;;;;;77.72;30.90;;;;;;;;;;10514502;28;20037;-71
2022/01/10 13:46:20;;;;;;;76.97;29.00;;;;;;;;;;10521980;28;20086;-72
2022/01/10 13:51:24;;;;;;;87.55;33.78;;;;;;;;;;10526644;28;20070;-73
2022/01/10 13:56:31;;;;;;;90.57;33.47;;;;;;;;;;10557471;28;20378;-74
2022/01/10 14:01:40;;;;;;;80.90;31.83;;;;;;;;;;10522196;28;20056;-72
2022/01/10 14:06:43;;;;;;;99.47;36.92;;;;;;;;;;10539912;28;20093;-71
2022/01/10 14:11:46;;;;;;;86.32;35.65;;;;;;;;;;10520007;28;20105;-73
2022/01/10 14:16:55;;;;;;;74.10;31.13;;;;;;;;;;10521341;28;20052;-71
2022/01/10 14:21:59;;;;;;;105.15;41.28;;;;;;;;;;10543523;28;20220;-71
2022/01/10 14:27:02;;;;;;;77.33;29.83;;;;;;;;;;10520014;28;20036;-72
2022/01/10 14:32:09;;;;;;;74.43;28.65;;;;;;;;;;10535718;28;20048;-74
2022/01/10 14:37:12;;;;;;;77.65;29.98;;;;;;;;;;10529408;28;20048;-70
2022/01/10 14:42:15;;;;;;;73.80;28.95;;;;;;;;;;10525106;28;20218;-71
2022/01/10 14:47:19;;;;;;;71.85;28.98;;;;;;;;;;10509501;28;20347;-71
2022/01/10 14:52:21;;;;;;;72.22;28.88;;;;;;;;;;10520880;28;20056;-72
2022/01/10 14:57:24;;;;;;;82.38;31.58;;;;;;;;;;10520904;28;20071;-69
2022/01/10 15:02:29;;;;;;;75.05;31.30;;;;;;;;;;10520266;28;20094;-71
2022/01/10 15:07:31;;;;;;;83.87;33.07;;;;;;;;;;10521509;28;20036;-71
2022/01/10 15:12:34;;;;;;;80.55;32.20;;;;;;;;;;10538517;28;20044;-73
2022/01/10 15:17:38;;;;;;;152.90;56.15;;;;;;;;;;10521461;28;20044;-72
2022/01/10 15:22:41;;;;;;;97.22;36.83;;;;;;;;;;10520676;28;20068;-72
2022/01/10 15:27:44;;;;;;;80.60;28.98;;;;;;;;;;10520553;28;20067;-71
2022/01/10 15:32:48;;;;;;;82.13;30.40;;;;;;;;;;10521285;28;20044;-69
2022/01/10 15:37:51;;;;;;;79.75;27.98;;;;;;;;;;10520140;28;20033;-72
2022/01/10 15:42:54;;;;;;;87.90;28.83;;;;;;;;;;10519713;28;20048;-71
2022/01/10 15:47:58;;;;;;;83.75;30.50;;;;;;;;;;10519033;28;20041;-70
2022/01/10 15:53:01;;;;;;;84.20;31.42;;;;;;;;;;10526275;28;20374;-70
2022/01/10 15:58:04;;;;;;;83.10;31.25;;;;;;;;;;10525483;28;20075;-70
2022/01/10 16:03:08;;;;;;;89.13;32.80;;;;;;;;;;10518613;28;20104;-71
2022/01/10 16:08:11;;;;;;;109.57;40.63;;;;;;;;;;10527321;28;20040;-72
2022/01/10 16:13:14;;;;;;;111.90;39.28;;;;;;;;;;10517062;28;20047;-72
2022/01/10 16:18:19;;;;;;;102.57;37.33;;;;;;;;;;10518463;28;20048;-73
2022/01/10 16:23:21;;;;;;;111.93;38.80;;;;;;;;;;10517630;28;20044;-70
2022/01/10 16:28:24;;;;;;;109.20;38.58;;;;;;;;;;10524646;28;20085;-68
2022/01/10 16:33:28;;;;;;;102.47;35.40;;;;;;;;;;10517822;28;20097;-69
2022/01/10 16:38:31;;;;;;;101.82;35.65;;;;;;;;;;10517463;28;20270;-70
2022/01/10 16:43:34;;;;;;;96.63;35.33;;;;;;;;;;10533079;28;20240;-71
2022/01/10 16:48:39;;;;;;;117.72;38.85;;;;;;;;;;10559453;28;20112;-72
2022/01/10 16:53:42;;;;;;;105.13;36.27;;;;;;;;;;10551244;28;20052;-71
2022/01/10 16:58:44;;;;;;;108.95;35.17;;;;;;;;;;10525703;28;20041;-73
2022/01/10 17:03:48;;;;;;;100.00;35.30;;;;;;;;;;10516791;28;20040;-73
2022/01/10 17:08:51;;;;;;;96.82;33.33;;;;;;;;;;10515874;28;20036;-74
2022/01/10 17:13:54;;;;;;;95.57;34.47;;;;;;;;;;10503333;28;20075;-70
2022/01/10 17:18:58;;;;;;;109.68;36.88;;;;;;;;;;10521254;28;20055;-71
2022/01/10 17:24:01;;;;;;;118.83;43.80;;;;;;;;;;10554687;28;20121;-71
2022/01/10 17:29:05;;;;;;;107.50;38.05;;;;;;;;;;10516923;28;20043;-73
2022/01/10 17:34:09;;;;;;;117.90;41.17;;;;;;;;;;10522239;28;20040;-71
2022/01/10 17:39:11;;;;;;;116.38;39.75;;;;;;;;;;10515446;28;20037;-73
2022/01/10 17:44:14;;;;;;;107.18;39.30;;;;;;;;;;10514674;28;20048;-71
2022/01/10 17:49:26;;;;;;;108.13;39.33;;;;;;;;;;10494031;28;20056;-71
2022/01/10 17:54:30;;;;;;;127.10;44.03;;;;;;;;;;10525874;28;20045;-72
2022/01/10 17:59:33;;;;;;;166.50;56.40;;;;;;;;;;10517857;28;20044;-73
2022/01/10 18:04:37;;;;;;;134.13;42.90;;;;;;;;;;10515807;28;20040;-72
2022/01/10 18:09:40;;;;;;;117.00;39.77;;;;;;;;;;10518043;28;20327;-72
2022/01/10 18:14:43;;;;;;;122.95;43.47;;;;;;;;;;10476294;28;20139;-73
2022/01/10 18:19:48;;;;;;;112.25;39.38;;;;;;;;;;10520814;28;20235;-72
2022/01/10 18:24:50;;;;;;;109.47;40.10;;;;;;;;;;10556250;28;20055;-69
2022/01/10 18:29:53;;;;;;;134.43;45.40;;;;;;;;;;10549575;28;20217;-71
2022/01/10 18:34:57;;;;;;;130.70;45.97;;;;;;;;;;10518478;28;20040;-71
2022/01/10 18:40:02;;;;;;;133.95;43.42;;;;;;;;;;10524321;28;20036;-71
2022/01/10 18:45:07;;;;;;;148.57;46.03;;;;;;;;;;10428465;28;20048;-70
2022/01/10 18:50:13;;;;;;;187.25;68.28;;;;;;;;;;10534986;28;20320;-71
2022/01/10 18:55:16;;;;;;;181.07;69.65;;;;;;;;;;10536083;28;20082;-72
2022/01/10 19:00:19;;;;;;;156.60;55.78;;;;;;;;;;10534679;28;20060;-73
2022/01/10 19:05:23;;;;;;;157.50;55.78;;;;;;;;;;10563075;28;20094;-72
2022/01/10 19:10:26;;;;;;;164.23;55.90;;;;;;;;;;10529869;28;20369;-73
2022/01/10 19:15:29;;;;;;;140.88;50.88;;;;;;;;;;10521242;28;20165;-72
2022/01/10 19:20:34;;;;;;;160.68;56.15;;;;;;;;;;10526996;28;20054;-72
2022/01/10 19:25:36;;;;;;;150.05;54.53;;;;;;;;;;10522437;28;20368;-73
2022/01/10 19:30:40;;;;;;;155.43;55.28;;;;;;;;;;10520231;28;20048;-73
2022/01/10 19:35:45;;;;;;;157.40;54.70;;;;;;;;;;10527785;28;20056;-67
2022/01/10 19:40:47;;;;;;;157.02;53.03;;;;;;;;;;10531883;28;20041;-73
2022/01/10 19:45:50;;;;;;;143.80;49.97;;;;;;;;;;10519047;28;20281;-71
2022/01/10 19:50:55;;;;;;;130.55;46.63;;;;;;;;;;10519770;28;20049;-71
2022/01/10 19:55:58;;;;;;;176.43;58.58;;;;;;;;;;10542713;28;20362;-73
2022/01/10 20:01:02;;;;;;;184.85;60.67;;;;;;;;;;10518763;28;20385;-72
2022/01/10 20:06:08;;;;;;;159.30;54.30;;;;;;;;;;10519492;28;20044;-73
2022/01/10 20:11:11;;;;;;;149.25;51.40;;;;;;;;;;10533643;28;20224;-73
2022/01/10 20:16:15;;;;;;;150.63;52.50;;;;;;;;;;10518914;28;20067;-71
2022/01/10 20:21:19;;;;;;;146.45;51.90;;;;;;;;;;10518404;28;20074;-71
2022/01/10 20:26:21;;;;;;;154.13;54.08;;;;;;;;;;10519475;28;20335;-71
2022/01/10 20:31:26;;;;;;;158.95;57.45;;;;;;;;;;10518700;28;20204;-69
2022/01/10 20:36:30;;;;;;;159.37;57.73;;;;;;;;;;10536336;28;20048;-71
2022/01/10 20:41:33;;;;;;;140.23;46.75;;;;;;;;;;10559849;28;20078;-73
2022/01/10 20:46:36;;;;;;;173.98;57.25;;;;;;;;;;10545132;28;20041;-72
2022/01/10 20:51:40;;;;;;;172.88;61.65;;;;;;;;;;10517203;28;20040;-73
2022/01/10 20:56:43;;;;;;;155.93;55.33;;;;;;;;;;10524483;28;20040;-72
2022/01/10 21:01:46;;;;;;;158.93;58.08;;;;;;;;;;10528743;28;20086;-71
2022/01/10 21:06:50;;;;;;;158.95;57.40;;;;;;;;;;10476139;28;20079;-70
2022/01/10 21:11:57;;;;;;;155.82;55.95;;;;;;;;;;10516620;28;20040;-71
2022/01/10 21:17:00;;;;;;;153.82;55.55;;;;;;;;;;10523982;28;20060;-70
2022/01/10 21:22:05;;;;;;;149.10;53.67;;;;;;;;;;10512707;28;20056;-71
2022/01/10 21:27:11;;;;;;;149.10;55.07;;;;;;;;;;10515811;28;20115;-74
2022/01/10 21:32:15;;;;;;;161.93;57.08;;;;;;;;;;10515386;28;20048;-72
2022/01/10 21:37:20;;;;;;;147.75;49.35;;;;;;;;;;10516732;28;20041;-70
2022/01/10 21:42:22;;;;;;;158.80;55.95;;;;;;;;;;10516411;28;20041;-70
2022/01/10 21:47:25;;;;;;;158.15;57.17;;;;;;;;;;10515952;28;20275;-73
2022/01/10 21:52:29;;;;;;;146.40;51.28;;;;;;;;;;10513107;28;20224;-70
2022/01/10 21:57:32;;;;;;;160.20;55.22;;;;;;;;;;10483154;28;20041;-70
2022/01/10 22:02:35;;;;;;;169.88;58.05;;;;;;;;;;10481087;28;20047;-71
2022/01/10 22:07:39;;;;;;;170.23;58.05;;;;;;;;;;10516101;28;20048;-73
2022/01/10 22:12:42;;;;;;;176.07;61.00;;;;;;;;;;10522768;28;20040;-70
2022/01/10 22:17:46;;;;;;;192.57;64.50;;;;;;;;;;10523622;28;20068;-72
2022/01/10 22:22:50;;;;;;;181.63;62.15;;;;;;;;;;10522561;28;20096;-74
2022/01/10 22:27:53;;;;;;;182.98;63.08;;;;;;;;;;10521622;28;20055;-70
2022/01/10 22:32:56;;;;;;;179.18;64.22;;;;;;;;;;10520123;28;20036;-71
2022/01/10 22:38:00;;;;;;;175.02;63.50;;;;;;;;;;10522000;28;20044;-70
2022/01/10 22:43:03;;;;;;;188.68;68.75;;;;;;;;;;10520730;28;20278;-73
2022/01/10 22:48:06;;;;;;;191.00;71.43;;;;;;;;;;10519997;28;20114;-71
2022/01/10 22:53:10;;;;;;;176.30;60.67;;;;;;;;;;10492154;28;20049;-71
2022/01/10 22:58:13;;;;;;;181.70;64.35;;;;;;;;;;10507459;28;20344;-72
2022/01/10 23:03:15;;;;;;;197.98;68.03;;;;;;;;;;10520603;28;20177;-73
2022/01/10 23:08:19;;;;;;;209.00;70.32;;;;;;;;;;10520291;28;20036;-72
2022/01/10 23:13:22;;;;;;;193.57;68.05;;;;;;;;;;10520198;28;20040;-72
2022/01/10 23:18:25;;;;;;;181.05;63.08;;;;;;;;;;10520527;28;20072;-72
2022/01/10 23:23:30;;;;;;;179.75;62.67;;;;;;;;;;10519147;28;20255;-69
2022/01/10 23:28:33;;;;;;;174.98;63.15;;;;;;;;;;10533939;28;20042;-72
2022/01/10 23:33:36;;;;;;;183.48;63.55;;;;;;;;;;10504453;28;20068;-73
2022/01/10 23:38:40;;;;;;;173.52;60.78;;;;;;;;;;10520074;28;20213;-72
2022/01/10 23:43:43;;;;;;;181.20;63.75;;;;;;;;;;10519299;28;20078;-72
2022/01/10 23:48:48;;;;;;;170.85;61.75;;;;;;;;;;10518664;28;20045;-70
2022/01/10 23:53:55;;;;;;;188.85;66.43;;;;;;;;;;10532701;28;20243;-72
2022/01/10 23:58:58;;;;;;;210.30;75.03;;;;;;;;;;10532340;28;20044;-73
